Brantford, Canada
Current Conditions -  °F | °C
As of 1:00 AM on Wednesday 22 Oct 2014 (Local Time) from CYHM Reporting Station
Rain Showers Rain Showers  
Wind Chill: 34°   Ceiling: 1800
Heat Index: 41°   Visibility: 5mi
Dew Point: 39°   Wind: 13mph
Humidity: 93%   Direction: 10°N
Pressure: 30.15"   Gusts: NA
Location:  43.14°N, 80.26°W
Report Text: CYHM 220500Z 01011KT 5SM -SHRA BR FEW008 OVC018 05/04 A3015 RMK SF2SC6 SLP217
Loading
Personal Weather Stations






























Interactive Weather Map
Tropical Storm Tracking
New forecast layout! Learn more

10-Day Weather Forecast

Advertisements
Track Severe Weather on mobile